KFDR/FDR METAR and TAF weather

Enter ICAO airport designator
Station Type Date Time Source
KFDR METAR 2020/07/12 03:53 UTC NOAA

KFDR 120353Z AUTO 16007KT 10SM CLR 32/22 A2986 RMK AO2 SLP086 T03170222


Station Type Date Time Source
KFDR Decoded METAR 2020/07/12 03:53 UTC NOAA

FREDERICK MUNICIPAL AIRPORT, OK, United States (KFDR) 34-21N 98-59W 377M
Jul 11, 2020 - 11:53 PM EDT / 2020.07.12 0353 UTC
Wind: from the SSE (160 degrees) at 8 MPH (7 KT):0
Visibility: 10 mile(s):0
Sky conditions: clear
Temperature: 89.1 F (31.7 C)
Heat index: 96.1 F (35.6 C):1
Dew Point: 72.0 F (22.2 C)
Relative Humidity: 57%
Pressure (altimeter): 29.86 in. Hg (1011 hPa)
ob: KFDR 120353Z AUTO 16007KT 10SM CLR 32/22 A2986 RMK AO2 SLP086 T03170222
cycle: 4

Station Type Date Time Source
KFDR TAF UTC NOAA

Error!

Example: see airport list